• Join FlightAware (Why Join?)
  • Login
  • US Flag 
06:13PM EST


 

Airport Tracker/Info


-or-


 

Live Flight TrackerFlight Track Log ✈ N820NC ✈ 22-Aug-2014 ✈ KIIB - KHOT

Flight Track Log - Related Links

Times and Time Zones

All times are in EDT time to prevent confusion due to time zone crossing. See the N820NC flight status page for this flight to view local times or setup timezone preferences in your user account.

Time Position Orientation Groundspeed Altitude Reporting Facility
EDT Latitude Longitude Course Direction KTS MPH feet Rate Location/Type
03:59PM 42.3164 -91.9534 177° South 239 275 6,000  Level FlightAware ADS-B (KCID)
04:00PM 42.3012 -91.9524 179° South 236 272 6,700 3,000 Climbing FlightAware ADS-B (KCID)
04:00PM 42.2715 -91.9558 187° South 228 262 8,200 3,000 Climbing FlightAware ADS-B (KCID)
04:00PM 42.2558 -91.9583 187° South 225 259 8,900 3,000 Climbing FlightAware ADS-B (KCID)
04:01PM 42.2384 -91.9613 187° South 221 254 9,700 3,060 Climbing FlightAware ADS-B (KCID)
04:01PM 42.2236 -91.9613 166° South 225 259 10,400 2,400 Climbing FlightAware ADS-B (KCID)
04:01PM 42.1976 -91.9419 148° Southeast 238 274 11,400 2,100 Climbing FlightAware ADS-B (KCID)
04:02PM 42.1684 -91.9179 149° Southeast 249 287 12,500 2,160 Climbing FlightAware ADS-B (KCID)
04:03PM 42.1236 -91.8862 169° South 255 293 14,100 2,160 Climbing FlightAware ADS-B (KCID)
04:03PM 42.0881 -91.8826 182° South 251 289 15,200 2,160 Climbing FlightAware ADS-B (KCID)
04:04PM 42.0681 -91.8852 187° South 246 283 16,500 2,160 Climbing FlightAware ADS-B (KCID)
04:04PM 42.0083 -91.8952 188° South 239 275 17,800 1,920 Climbing FlightAware ADS-B (KCID)
04:05PM 41.9585 -91.8924 171° South 254 292 19,100 1,680 Climbing FlightAware ADS-B (KCID)
04:06PM 41.9261 -91.8852 171° South 268 308 19,900 1,500 Climbing FlightAware ADS-B (KCID)
04:06PM 41.8671 -91.8734 172° South 281 323 21,000 1,500 Climbing FlightAware ADS-B (KCID)
04:07PM 41.8281 -91.8661 172° South 286 329 21,800 1,500 Climbing FlightAware ADS-B (KCID)
04:08PM 41.7577 -91.8526 172° South 293 337 23,100 1,440 Climbing FlightAware ADS-B (KCID)
04:08PM 41.7136 -91.8408 168° South 300 345 23,900 1,260 Climbing FlightAware ADS-B (KCID)
04:09PM 41.6097 -91.8120 168° South 312 359 25,400 1,200 Climbing FlightAware ADS-B (KCID)
04:11PM 41.4997 -91.7818 169° South 315 362 27,000 1,140 Climbing FlightAware ADS-B (KCID)
04:12PM 41.3689 -91.7558 188° South 310 357 28,700 1,020 Climbing FlightAware ADS-B (KCID)
04:13PM 41.3267 -91.7656 188° South 311 358 29,300 1,020 Climbing Chicago Center
04:15PM 41.1686 -91.7989 189° South 311 358 31,400 1,020 Climbing Kansas City Center
04:16PM 41.0794 -91.8186 189° South 320 368 32,400 1,020 Climbing Kansas City Center
04:17PM 40.9714 -91.8411 189° South 327 376 33,600 1,020 Climbing Kansas City Center
04:18PM 40.8808 -91.8606 189° South 328 377 34,600 960 Climbing Kansas City Center
04:19PM 40.7747 -91.8806 188° South 324 373 35,800 960 Climbing Chicago Center
04:20PM 40.6878 -91.8992 189° South 322 371 36,800 960 Climbing Chicago Center
04:21PM 40.6172 -91.9153 190° South 322 371 37,600 1,020 Climbing Kansas City Center
04:22PM 40.5117 -91.9375 189° South 322 371 38,800 1,020 Climbing Kansas City Center
04:23PM 40.4228 -91.9550 189° South 323 372 39,800 540 Climbing Kansas City Center
04:24PM 40.3331 -91.9739 189° South 324 373 40,000 60 Climbing Kansas City Center
04:25PM 40.2353 -91.9939 189° South 346 398 40,000  Level Kansas City Center
04:26PM 40.1353 -92.0139 189° South 358 412 40,000  Level Kansas City Center
04:27PM 40.0342 -92.0358 189° South 366 421 40,000  Level Kansas City Center
04:28PM 39.9131 -92.0608 189° South 366 421 40,000  Level Kansas City Center
04:29PM 39.8103 -92.0819 189° South 370 426 40,000  Level Kansas City Center
04:30PM 39.7078 -92.1011 188° South 371 427 40,000  Level Kansas City Center
04:32PM 39.5019 -92.1422 189° South 372 428 40,000  Level Kansas City Center
04:33PM 39.3781 -92.1672 189° South 374 430 40,000  Level Kansas City Center
04:34PM 39.2733 -92.1894 189° South 378 435 40,000  Level Kansas City Center
04:40PM 38.6378 -92.3174 189° South 372 428 40,000  Level FlightAware ADS-B (KJEF)
04:41PM 38.5870 -92.3275 189° South 375 432 40,000  Level FlightAware ADS-B (KJEF)
04:41PM 38.5329 -92.3381 189° South 378 435 40,000  Level FlightAware ADS-B (KJEF)
04:42PM 38.4813 -92.3483 189° South 380 437 40,000  Level FlightAware ADS-B (KJEF)
04:42PM 38.4271 -92.3589 189° South 381 438 40,000  Level FlightAware ADS-B (KJEF)
04:43PM 38.3744 -92.3692 189° South 382 440 40,000  Level FlightAware ADS-B (KJEF)
04:43PM 38.3397 -92.3761 189° South 381 438 40,000  Level FlightAware ADS-B (KJEF)
04:44PM 38.2594 -92.3919 189° South 381 438 40,000  Level FlightAware ADS-B (KJEF)
04:45PM 38.1833 -92.4083 189° South 378 435 40,000  Level Kansas City Center
04:46PM 38.0917 -92.4286 190° South 377 434 40,000  Level Kansas City Center
04:47PM 37.9836 -92.4503 189° South 379 436 40,000  Level Kansas City Center
04:48PM 37.8542 -92.4733 188° South 390 449 40,000  Level Kansas City Center
04:49PM 37.7492 -92.4925 188° South 387 445 40,000  Level Kansas City Center
04:50PM 37.6400 -92.5133 189° South 386 444 40,000  Level Kansas City Center
04:51PM 37.5342 -92.5347 189° South 385 443 40,000  Level Kansas City Center
04:52PM 37.4272 -92.5556 189° South 385 443 40,000  Level Kansas City Center
04:53PM 37.3186 -92.5739 188° South 392 451 40,000  Level Kansas City Center
04:54PM 37.1908 -92.5986 189° South 389 448 40,000  Level Kansas City Center
04:55PM 37.0836 -92.6194 189° South 387 445 40,000  Level Kansas City Center
04:56PM 36.9772 -92.6394 189° South 388 447 40,000  Level Kansas City Center
04:57PM 36.8708 -92.6586 188° South 386 444 40,000 -540 Level Kansas City Center
04:58PM 36.7667 -92.6778 188° South 382 440 38,900 -1,380 Descending Kansas City Center
05:01PM 36.4494 -92.7389 193° South 373 429 34,300 -1,560 Descending Kansas City Center
05:02PM 36.3425 -92.7547 187° South 377 434 32,800 -1,560 Descending Memphis Center
05:03PM 36.2333 -92.7678 186° South 389 448 31,300 -1,500 Descending Memphis Center
05:04PM 36.1206 -92.7842 187° South 403 464 29,800 -1,500 Descending Memphis Center
05:05PM 36.0050 -92.8003 186° South 411 473 28,200 -1,500 Descending Memphis Center
05:06PM 35.8869 -92.8169 187° South 420 483 26,700 -2,280 Descending Memphis Center
05:07PM 35.7569 -92.8356 187° South 407 468 23,600 -2,760 Descending Memphis Center
05:09PM 35.6553 -92.8497 186° South 385 443 21,100 -2,400 Descending Memphis Center
05:10PM 35.5603 -92.8633 187° South 363 418 18,600 -2,160 Descending Memphis Center
05:11PM 35.4678 -92.8756 186° South 344 396 16,700 -1,980 Descending Memphis Center
05:12PM 35.3708 -92.8892 187° South 341 392 14,600 -1,740 Descending Memphis Center
05:13PM 35.2789 -92.9019 186° South 329 379 13,200 -1,380 Descending Memphis Center
05:14PM 35.1950 -92.9147 187° South 309 356 11,800 -1,380 Descending Memphis Center
05:15PM 35.1172 -92.9442 197° South 299 344 10,400 -900 Descending Memphis Center
05:16PM 35.0278 -92.9900 203° Southwest 295 339 10,000 -240 Descending Memphis Center
05:17PM 34.9619 -93.0256 204° Southwest 275 316 10,000 -360 Level Memphis Center
05:18PM 34.8958 -93.0461 194° South 257 296 9,300 -1,620 Descending Memphis Center
05:19PM 34.8206 -93.0386 175° South 265 305 6,700 -2,640 Descending Memphis Center
05:20PM 34.7450 -93.0306 175° South 269 310 3,900 -1,560 Descending Memphis Center
05:21PM 34.6742 -93.0217 174° South 265 305 3,500 -240 Descending Memphis Center
05:22PM 34.6056 -93.0139 175° South 226 260 3,500  Level Memphis Center